EGGP/LPL METAR and TAF weather

Enter ICAO airport designator
Station Type Date Time Source
EGGP METAR 2021/01/22 06:50 UTC NOAA

EGGP 220650Z 26012KT 9999 BKN030 05/03 Q0988


Station Type Date Time Source
EGGP Decoded METAR 2021/01/22 06:50 UTC NOAA

Liverpool Airport , United Kingdom (EGGP) 53-20N 002-51W
Jan 22, 2021 - 01:50 AM EST / 2021.01.22 0650 UTC
Wind: from the W (260 degrees) at 14 MPH (12 KT):0
Visibility: greater than 7 mile(s):0
Sky conditions: mostly cloudy
Temperature: 41 F (5 C)
Dew Point: 37 F (3 C)
Relative Humidity: 86%
Pressure (altimeter): 29.18 in. Hg (0988 hPa)
ob: EGGP 220650Z 26012KT 9999 BKN030 05/03 Q0988
cycle: 7

Station Type Date Time Source
EGGP TAF 2021/01/22 06:15 UTC NOAA

TAF EGGP 220500Z 2206/2306 26008KT 9999 SCT030 PROB30
TEMPO 2206/2212 6000 SHRASN BKN012
TEMPO 2218/2306 3000 SHRASN BKN009 PROB30
TEMPO 2218/2306 1200 +SHRASN SHSN BKN004

Example: see airport list